Time;durP1;ratioP1;P1;durP2;ratioP2;P2;SDS_P1;SDS_P2;PMS_P1;PMS_P2;Temp;Humidity;BMP_temperature;BMP_pressure;BME280_temperature;BME280_humidity;BME280_pressure;Samples;Min_cycle;Max_cycle;Signal;HPM_P1;HPM_P2
2021/04/10 00:02:19;;;;;;;20.08;13.07;;;;;;;10.87;79.23;100786.63;5052233;28;20041;-73
2021/04/10 00:04:46;;;;;;;21.73;13.27;;;;;;;11.02;78.81;100792.59;5035437;28;20496;-72
2021/04/10 00:07:13;;;;;;;20.40;14.10;;;;;;;10.84;78.97;100784.53;5053056;28;20060;-72
2021/04/10 00:09:40;;;;;;;21.90;14.65;;;;;;;10.95;78.68;100786.69;5034207;28;20044;-75
2021/04/10 00:12:09;;;;;;;20.42;13.77;;;;;;;11.01;77.84;100790.16;5052262;28;20060;-73
2021/04/10 00:14:36;;;;;;;20.38;13.25;;;;;;;11.04;77.77;100793.09;5052888;28;20056;-76
2021/04/10 00:17:03;;;;;;;18.50;14.02;;;;;;;11.16;77.41;100796.06;5035526;28;20045;-75
2021/04/10 00:19:32;;;;;;;19.30;14.15;;;;;;;10.92;78.26;100795.59;5052308;28;20049;-74
2021/04/10 00:21:59;;;;;;;22.60;14.73;;;;;;;10.92;78.34;100795.59;5035551;28;20056;-73
2021/04/10 00:24:29;;;;;;;19.77;13.45;;;;;;;10.90;79.05;100783.25;5049537;28;20495;-72
2021/04/10 00:26:56;;;;;;;20.35;14.07;;;;;;;10.95;78.96;100781.19;5051909;28;20056;-74
2021/04/10 00:29:23;;;;;;;19.20;14.32;;;;;;;10.85;79.32;100778.69;5034512;28;20526;-71
2021/04/10 00:31:55;;;;;;;21.60;13.55;;;;;;;10.79;79.25;100777.19;5052636;28;20472;-74
2021/04/10 00:34:22;;;;;;;22.00;14.65;;;;;;;10.96;79.06;100787.53;5052731;28;20060;-73
2021/04/10 00:36:49;;;;;;;23.50;14.43;;;;;;;10.90;79.26;100780.50;5052637;28;20052;-74
2021/04/10 00:39:17;;;;;;;22.38;15.77;;;;;;;10.87;79.39;100784.72;5053035;28;20400;-74
2021/04/10 00:41:44;;;;;;;21.75;14.38;;;;;;;10.95;78.57;100786.69;5035222;28;20045;-74
2021/04/10 00:44:11;;;;;;;19.85;14.05;;;;;;;11.02;78.58;100786.25;5051397;28;20072;-74
2021/04/10 00:46:38;;;;;;;23.50;14.57;;;;;;;10.95;78.98;100792.22;5034796;28;20060;-72
2021/04/10 00:49:09;;;;;;;24.95;14.45;;;;;;;10.92;78.42;100784.56;5052409;28;20060;-73
2021/04/10 00:51:53;;;;;;;22.48;13.77;;;;;;;10.77;79.12;100790.47;5052494;28;20064;-72
2021/04/10 00:54:20;;;;;;;18.30;13.55;;;;;;;10.79;79.52;100793.72;5052514;28;20049;-74
2021/04/10 00:56:47;;;;;;;20.60;13.95;;;;;;;10.61;80.38;100797.47;5051683;28;20056;-74
2021/04/10 00:59:17;;;;;;;19.90;14.35;;;;;;;10.78;79.37;100805.88;5052094;28;20041;-73
2021/04/10 01:01:44;;;;;;;20.48;14.65;;;;;;;10.72;79.24;100804.34;5051980;28;20053;-73
2021/04/10 01:04:12;;;;;;;19.88;13.70;;;;;;;10.66;79.92;100802.84;5034774;28;20053;-73
2021/04/10 01:07:01;;;;;;;20.98;14.07;;;;;;;10.50;80.28;100807.09;5051045;28;20052;-71
2021/04/10 01:09:29;;;;;;;21.30;14.98;;;;;;;10.49;80.05;100810.16;5050788;28;20048;-74
2021/04/10 01:12:14;;;;;;;24.77;16.00;;;;;;;10.30;81.09;100812.25;5052257;28;20484;-74
2021/04/10 01:14:53;;;;;;;22.55;15.05;;;;;;;10.58;80.78;100800.03;5038540;28;20053;-73
2021/04/10 01:17:25;;;;;;;21.33;15.50;;;;;;;10.70;80.62;100797.53;5038430;28;20108;-73
2021/04/10 01:20:24;;;;;;;23.60;15.93;;;;;;;10.64;80.77;100787.75;5037709;28;20392;-76
2021/04/10 01:23:28;;;;;;;24.77;15.38;;;;;;;10.67;80.42;100796.22;5048476;28;20041;-75
2021/04/10 01:26:06;;;;;;;24.77;15.60;;;;;;;10.33;81.53;100797.84;5022456;28;20041;-73
2021/04/10 01:28:58;;;;;;;23.17;15.18;;;;;;;10.56;80.68;100781.06;5022064;28;20052;-74
2021/04/10 01:31:29;;;;;;;23.90;16.15;;;;;;;10.67;80.67;100771.41;5054885;28;20057;-73
2021/04/10 01:33:59;;;;;;;21.08;15.00;;;;;;;10.74;80.39;100777.31;5054252;28;20053;-73
2021/04/10 01:36:30;;;;;;;23.65;15.65;;;;;;;10.66;80.41;100775.31;5021105;28;20064;-71
2021/04/10 01:38:57;;;;;;;22.15;15.02;;;;;;;10.37;81.92;100776.84;5038960;28;20459;-73
2021/04/10 01:41:52;;;;;;;24.90;16.55;;;;;;;10.50;81.32;100767.72;5020874;28;20061;-72
2021/04/10 01:44:21;;;;;;;24.77;15.15;;;;;;;10.69;80.53;100765.59;5055507;28;20072;-70
2021/04/10 01:51:36;;;;;;;23.90;16.58;;;;;;;10.62;80.81;100757.78;5037750;28;20055;-73
2021/04/10 01:54:04;;;;;;;30.80;16.48;;;;;;;10.53;80.82;100769.88;5021580;28;20049;-73
2021/04/10 01:56:33;;;;;;;22.00;16.30;;;;;;;10.43;81.02;100759.06;5030378;28;20041;-72
2021/04/10 01:59:03;;;;;;;24.60;16.73;;;;;;;10.57;80.62;100763.41;5021781;28;20049;-71
2021/04/10 02:01:48;;;;;;;23.08;16.65;;;;;;;10.60;80.71;100760.00;5023972;28;20060;-72
2021/04/10 02:04:18;;;;;;;23.45;17.15;;;;;;;10.51;81.22;100755.59;5021852;28;20488;-73
2021/04/10 02:06:53;;;;;;;20.33;15.98;;;;;;;10.37;80.73;100747.38;5037866;28;20045;-72
2021/04/10 02:09:28;;;;;;;24.83;17.73;;;;;;;10.38;80.73;100743.50;5038317;28;20461;-74
2021/04/10 02:12:12;;;;;;;23.92;16.52;;;;;;;10.45;80.83;100743.88;5023679;28;20472;-72
2021/04/10 02:14:56;;;;;;;23.63;16.27;;;;;;;10.19;81.11;100746.41;5037811;28;20049;-73
2021/04/10 02:22:07;;;;;;;23.55;16.63;;;;;;;10.21;81.61;100754.34;5039062;28;20456;-73
2021/04/10 02:24:37;;;;;;;24.95;17.95;;;;;;;10.25;80.88;100760.06;5055942;28;20491;-74
2021/04/10 02:27:07;;;;;;;27.65;19.05;;;;;;;10.39;79.76;100753.38;5039551;28;20052;-73
2021/04/10 02:29:43;;;;;;;27.30;18.45;;;;;;;10.60;79.14;100757.25;5056001;28;20064;-73
2021/04/10 02:32:28;;;;;;;27.80;18.45;;;;;;;10.31;78.51;100751.38;5056601;28;20044;-73
2021/04/10 02:35:13;;;;;;;24.45;17.85;;;;;;;10.39;78.41;100747.84;5038767;28;20049;-73
2021/04/10 02:37:43;;;;;;;29.00;18.83;;;;;;;10.29;78.34;100745.34;5055049;28;20045;-72
2021/04/10 02:40:18;;;;;;;26.10;18.90;;;;;;;10.18;78.49;100733.75;5038366;28;20048;-73
2021/04/10 02:42:47;;;;;;;26.13;19.60;;;;;;;10.22;78.86;100730.41;5039383;28;20049;-73
2021/04/10 02:45:24;;;;;;;27.98;19.70;;;;;;;10.01;79.73;100727.25;5038907;28;20049;-73
2021/04/10 02:52:12;;;;;;;25.25;18.00;;;;;;;10.32;79.96;100722.69;5054786;28;20052;-75
2021/04/10 02:54:46;;;;;;;28.30;19.10;;;;;;;10.28;79.94;100723.63;5035291;28;20053;-73
2021/04/10 02:57:17;;;;;;;30.20;19.50;;;;;;;10.28;79.68;100723.63;5019122;28;20049;-73
2021/04/10 02:59:49;;;;;;;28.50;18.98;;;;;;;10.10;80.10;100725.44;5054853;28;20052;-72
2021/04/10 03:02:26;;;;;;;25.60;19.60;;;;;;;10.17;79.96;100714.81;5036323;28;20076;-72
2021/04/10 03:04:58;;;;;;;25.75;19.10;;;;;;;10.30;80.05;100699.38;5020779;28;20037;-73
2021/04/10 03:07:26;;;;;;;26.02;18.77;;;;;;;10.22;80.92;100711.13;5036899;28;20065;-73
2021/04/10 03:09:54;;;;;;;27.65;18.63;;;;;;;10.56;79.91;100711.41;5053603;28;20488;-73
2021/04/10 03:12:27;;;;;;;28.33;18.85;;;;;;;10.27;80.70;100698.03;5054355;28;20057;-74
2021/04/10 03:14:56;;;;;;;32.10;19.58;;;;;;;9.87;82.46;100698.94;5036386;28;20051;-72
2021/04/10 03:17:36;;;;;;;27.02;18.98;;;;;;;9.99;82.40;100693.72;5036898;28;20053;-73
2021/04/10 03:20:21;;;;;;;25.55;18.13;;;;;;;10.18;81.88;100691.69;5045803;28;20048;-73
2021/04/10 03:22:51;;;;;;;25.40;18.13;;;;;;;10.26;81.06;100682.66;5036382;28;20411;-74
2021/04/10 03:25:29;;;;;;;24.27;18.50;;;;;;;10.12;80.66;100685.47;5037696;28;20040;-72
2021/04/10 03:28:01;;;;;;;24.50;18.13;;;;;;;10.22;80.93;100689.13;5036351;28;20053;-74
2021/04/10 03:30:29;;;;;;;25.85;18.20;;;;;;;10.16;81.25;100677.41;5036408;28;20052;-71
2021/04/10 03:32:56;;;;;;;27.38;18.67;;;;;;;10.20;81.21;100670.97;5035974;28;20056;-73
2021/04/10 03:35:27;;;;;;;28.27;18.52;;;;;;;10.31;81.03;100667.94;5035088;28;20044;-73
2021/04/10 03:37:57;;;;;;;26.42;18.45;;;;;;;10.18;81.41;100673.19;5035985;28;20049;-71
2021/04/10 03:40:28;;;;;;;24.33;19.15;;;;;;;10.09;82.07;100677.03;5035657;28;20384;-74
2021/04/10 03:42:57;;;;;;;30.77;20.70;;;;;;;9.92;82.95;100674.09;5035711;28;20371;-72
2021/04/10 03:45:31;;;;;;;26.10;19.98;;;;;;;9.95;83.63;100679.78;5052512;28;20419;-73
2021/04/10 03:48:03;;;;;;;25.30;20.00;;;;;;;9.91;84.04;100676.03;5053642;28;20415;-71
2021/04/10 03:50:41;;;;;;;29.63;20.30;;;;;;;9.95;84.03;100670.72;5035342;28;20128;-72
2021/04/10 03:53:32;;;;;;;27.80;21.33;;;;;;;9.92;84.12;100669.38;5034921;28;20053;-71
2021/04/10 03:56:05;;;;;;;29.10;21.15;;;;;;;9.82;83.91;100671.56;5033365;28;20049;-72
2021/04/10 03:58:44;;;;;;;29.48;20.75;;;;;;;9.90;83.50;100662.59;5053114;28;20411;-74
2021/04/10 04:01:20;;;;;;;30.10;21.20;;;;;;;9.97;83.96;100660.22;5035856;28;20072;-72
2021/04/10 04:03:48;;;;;;;28.25;21.25;;;;;;;9.96;83.95;100653.91;5051913;28;20056;-72
2021/04/10 04:06:15;;;;;;;27.52;21.88;;;;;;;10.09;83.02;100649.50;5053167;28;20049;-73
2021/04/10 04:08:42;;;;;;;30.33;21.65;;;;;;;9.97;84.17;100654.72;5052661;28;20373;-75
2021/04/10 04:11:17;;;;;;;28.50;21.15;;;;;;;9.85;83.94;100659.94;5037332;28;20409;-74
2021/04/10 04:13:44;;;;;;;26.83;21.33;;;;;;;9.81;85.28;100658.94;5039029;28;20060;-73
2021/04/10 04:16:11;;;;;;;27.58;21.05;;;;;;;9.87;85.21;100666.75;5055183;28;20052;-74
2021/04/10 04:18:38;;;;;;;29.05;21.17;;;;;;;9.91;85.16;100667.78;5035517;28;20049;-74
2021/04/10 04:21:06;;;;;;;29.50;21.25;;;;;;;9.92;84.90;100661.13;5052502;28;20049;-73
2021/04/10 04:23:36;;;;;;;28.27;21.83;;;;;;;10.03;85.13;100658.97;5035933;28;20041;-72
2021/04/10 04:26:05;;;;;;;28.23;21.83;;;;;;;10.13;84.87;100669.75;5051486;28;20533;-73
2021/04/10 04:28:32;;;;;;;28.35;22.02;;;;;;;10.28;84.43;100665.84;5052799;28;20758;-72
2021/04/10 04:31:20;;;;;;;28.08;21.35;;;;;;;10.18;84.76;100659.44;5052876;28;20056;-73
2021/04/10 04:33:47;;;;;;;25.30;20.85;;;;;;;10.16;84.15;100658.16;5052148;28;20495;-74
2021/04/10 04:36:14;;;;;;;28.20;21.23;;;;;;;9.96;84.63;100653.06;5035013;28;20053;-73
2021/04/10 04:38:44;;;;;;;28.75;21.48;;;;;;;10.06;85.26;100656.41;5052641;28;20057;-72
2021/04/10 04:41:11;;;;;;;25.20;20.48;;;;;;;10.12;85.08;100649.69;5052102;28;20060;-72
2021/04/10 04:43:37;;;;;;;28.65;20.88;;;;;;;10.14;84.76;100657.63;5052401;28;20056;-72
2021/04/10 04:46:04;;;;;;;29.20;22.00;;;;;;;10.45;84.45;100657.69;5052541;28;20084;-74
2021/04/10 04:48:31;;;;;;;29.35;22.15;;;;;;;10.45;83.76;100661.25;5052418;28;20052;-74
2021/04/10 04:50:58;;;;;;;27.08;21.58;;;;;;;10.26;84.96;100657.06;5052045;28;20484;-73
2021/04/10 04:53:25;;;;;;;27.00;22.77;;;;;;;10.15;85.21;100653.75;5034132;28;20053;-73
2021/04/10 04:55:52;;;;;;;27.00;22.15;;;;;;;10.28;85.35;100655.63;5052009;28;20053;-71
2021/04/10 04:58:19;;;;;;;29.55;21.98;;;;;;;10.36;84.39;100667.81;5034715;28;20056;-72
2021/04/10 05:00:52;;;;;;;29.17;21.58;;;;;;;10.30;84.78;100658.91;5035478;28;20052;-74
2021/04/10 05:03:19;;;;;;;27.63;21.73;;;;;;;10.27;84.87;100658.72;5034213;28;20052;-73
2021/04/10 05:05:47;;;;;;;27.50;22.02;;;;;;;10.32;84.11;100656.63;5034405;28;20052;-73
2021/04/10 05:08:14;;;;;;;28.85;23.45;;;;;;;10.47;83.52;100658.19;5052453;28;20064;-74
2021/04/10 05:10:41;;;;;;;28.30;22.63;;;;;;;10.28;84.03;100654.81;5051925;28;20048;-74
2021/04/10 05:13:26;;;;;;;30.15;23.88;;;;;;;10.29;84.37;100649.00;5051667;28;20488;-73
2021/04/10 05:15:57;;;;;;;30.38;24.00;;;;;;;10.24;84.71;100657.38;5052489;28;20390;-73
2021/04/10 05:18:24;;;;;;;29.85;23.58;;;;;;;10.14;84.72;100654.88;5049933;28;20494;-73
2021/04/10 05:20:51;;;;;;;29.40;22.73;;;;;;;10.42;84.30;100652.81;5051623;28;20496;-72
2021/04/10 05:23:22;;;;;;;28.88;22.92;;;;;;;10.35;84.10;100653.25;5034621;28;20048;-72
2021/04/10 05:25:51;;;;;;;29.83;23.98;;;;;;;10.13;84.84;100643.06;5034470;28;20049;-74
2021/04/10 05:28:20;;;;;;;30.10;25.20;;;;;;;10.00;85.70;100643.09;5034499;28;20064;-73
2021/04/10 05:30:47;;;;;;;30.05;24.45;;;;;;;10.01;85.69;100645.53;5051386;28;20048;-74
2021/04/10 05:33:14;;;;;;;30.02;24.00;;;;;;;9.90;86.39;100632.31;5034634;28;20159;-74
2021/04/10 05:35:41;;;;;;;31.85;24.30;;;;;;;9.86;86.31;100636.81;5018268;28;20045;-73
2021/04/10 05:38:08;;;;;;;33.10;25.55;;;;;;;9.91;86.09;100633.94;5050935;28;20052;-72
2021/04/10 05:40:35;;;;;;;33.05;25.80;;;;;;;9.93;86.55;100624.25;5051145;28;20056;-71
2021/04/10 05:43:02;;;;;;;31.65;24.67;;;;;;;10.28;85.79;100625.34;5051998;28;20048;-73
2021/04/10 05:45:28;;;;;;;30.55;24.42;;;;;;;10.29;85.32;100635.22;5033266;28;20064;-72
2021/04/10 05:47:55;;;;;;;29.65;25.13;;;;;;;10.32;84.97;100633.81;5050699;28;20060;-73
2021/04/10 05:50:22;;;;;;;29.40;24.38;;;;;;;10.48;84.21;100630.34;5033945;28;20064;-72
2021/04/10 05:57:25;;;;;;;29.77;24.35;;;;;;;10.31;85.20;100630.22;5049258;28;20064;-72
2021/04/10 05:59:52;;;;;;;32.42;24.38;;;;;;;10.30;85.64;100628.63;5054821;28;20381;-73
2021/04/10 06:02:22;;;;;;;30.60;24.33;;;;;;;10.23;85.70;100625.50;5052212;28;20059;-72
2021/04/10 06:04:50;;;;;;;29.05;25.02;;;;;;;10.13;86.17;100629.28;5038838;28;20067;-72
2021/04/10 06:11:56;;;;;;;30.55;24.55;;;;;;;10.32;86.34;100611.78;5057181;28;20500;-72
2021/04/10 06:14:23;;;;;;;35.03;26.58;;;;;;;10.22;86.61;100618.34;5056674;28;20049;-72
2021/04/10 06:16:51;;;;;;;31.80;26.48;;;;;;;10.06;87.56;100622.56;5037797;28;20068;-74
2021/04/10 06:19:22;;;;;;;;;;;;;;;10.22;87.09;100610.09;5038629;28;20071;-74
2021/04/10 06:22:09;;;;;;;30.33;26.08;;;;;;;10.42;86.00;100619.78;5036622;28;20371;-73
2021/04/10 06:24:36;;;;;;;33.40;26.63;;;;;;;10.34;86.65;100621.34;5050226;28;20053;-73
2021/04/10 06:27:04;;;;;;;32.85;26.58;;;;;;;10.47;86.62;100620.47;5054549;28;20045;-72
2021/04/10 06:29:30;;;;;;;29.13;25.20;;;;;;;10.62;85.91;100609.03;5054408;28;20057;-72
2021/04/10 06:31:57;;;;;;;30.10;24.67;;;;;;;10.68;86.26;100606.97;5054751;28;20056;-74
2021/04/10 06:34:24;;;;;;;31.75;25.58;;;;;;;10.72;85.94;100610.72;5054369;28;20053;-72
2021/04/10 06:36:51;;;;;;;28.30;23.58;;;;;;;10.80;85.17;100607.19;5055506;28;20048;-73
2021/04/10 06:39:22;;;;;;;31.80;24.58;;;;;;;10.64;85.76;100605.97;5055882;28;20056;-73
2021/04/10 06:41:50;;;;;;;30.30;24.57;;;;;;;10.67;85.93;100611.66;5054930;28;20041;-73
2021/04/10 06:44:17;;;;;;;29.95;24.40;;;;;;;10.56;86.07;100618.56;5036373;28;20072;-74
2021/04/10 06:46:45;;;;;;;29.13;23.48;;;;;;;10.66;86.03;100606.47;5036531;28;20377;-74
2021/04/10 06:49:31;;;;;;;30.02;24.42;;;;;;;10.72;85.76;100613.47;5039635;28;20043;-72
2021/04/10 06:51:59;;;;;;;30.60;24.13;;;;;;;10.61;86.60;100601.91;5036994;28;20056;-72
2021/04/10 06:54:34;;;;;;;33.63;25.52;;;;;;;10.57;87.21;100614.69;5004121;28;20075;-71
2021/04/10 06:57:19;;;;;;;33.72;25.00;;;;;;;10.56;87.43;100606.75;5036926;28;20045;-73
2021/04/10 07:00:10;;;;;;;35.22;25.75;;;;;;;10.54;87.20;100614.50;5054259;28;20464;-72
2021/04/10 07:02:39;;;;;;;35.35;26.23;;;;;;;10.51;88.07;100607.69;5037070;28;20044;-73
2021/04/10 07:05:08;;;;;;;34.47;25.25;;;;;;;10.59;88.08;100611.59;5036682;28;20049;-71
2021/04/10 07:07:35;;;;;;;31.90;23.92;;;;;;;10.60;88.32;100600.28;5036723;28;20048;-73
2021/04/10 07:10:06;;;;;;;32.08;24.23;;;;;;;10.75;87.63;100601.81;5018934;28;20045;-74
2021/04/10 07:12:41;;;;;;;28.65;23.70;;;;;;;10.73;87.31;100595.81;5035876;28;20071;-72
2021/04/10 07:15:10;;;;;;;38.78;23.85;;;;;;;10.95;86.87;100593.78;5055260;28;20045;-73
2021/04/10 07:17:37;;;;;;;30.35;22.85;;;;;;;10.93;85.97;100596.03;5052765;28;20052;-72
2021/04/10 07:20:33;;;;;;;29.60;23.00;;;;;;;10.99;86.44;100586.50;5036982;28;20049;-73
2021/04/10 07:23:10;;;;;;;32.72;22.65;;;;;;;10.85;87.05;100585.81;5021411;28;20057;-73
2021/04/10 07:25:45;;;;;;;27.42;21.20;;;;;;;11.12;86.05;100582.00;5053965;28;20052;-72
2021/04/10 07:28:21;;;;;;;30.65;22.65;;;;;;;11.10;86.15;100585.09;5054420;28;20057;-74
2021/04/10 07:31:10;;;;;;;27.65;20.95;;;;;;;11.20;86.17;100579.28;5035695;28;20059;-70
2021/04/10 07:33:57;;;;;;;26.10;20.88;;;;;;;11.22;85.73;100579.78;5054204;28;20037;-68
2021/04/10 07:36:26;;;;;;;25.30;19.60;;;;;;;11.19;86.51;100574.88;5053880;28;20412;-73
2021/04/10 07:39:00;;;;;;;27.50;18.65;;;;;;;11.17;85.74;100566.16;5052996;28;20127;-72
2021/04/10 07:41:45;;;;;;;27.40;19.58;;;;;;;11.32;85.92;100570.38;5046551;28;20052;-71
2021/04/10 07:44:43;;;;;;;27.27;19.02;;;;;;;11.53;85.09;100565.03;5038544;28;20060;-71
2021/04/10 07:47:11;;;;;;;24.23;17.52;;;;;;;11.50;84.47;100565.69;5036282;28;20515;-72
2021/04/10 07:49:38;;;;;;;26.08;17.35;;;;;;;11.55;84.58;100563.59;5054370;28;20059;-72
2021/04/10 07:57:00;;;;;;;24.70;16.90;;;;;;;11.56;84.25;100554.16;5053345;28;20506;-72
2021/04/10 07:59:56;;;;;;;25.33;18.60;;;;;;;11.66;84.17;100555.84;5052948;28;20052;-74
2021/04/10 08:02:24;;;;;;;25.30;16.02;;;;;;;11.44;84.76;100550.47;5037110;28;20056;-73
2021/04/10 08:04:58;;;;;;;28.92;19.90;;;;;;;11.64;84.83;100556.19;5053408;28;20388;-73
2021/04/10 08:12:12;;;;;;;22.65;14.77;;;;;;;11.81;84.22;100547.88;5054409;28;20053;-73
2021/04/10 08:14:54;;;;;;;21.70;15.07;;;;;;;11.79;84.11;100546.56;5053097;28;20049;-71
2021/04/10 08:17:37;;;;;;;19.05;14.15;;;;;;;11.87;84.18;100537.50;5052852;28;20049;-73
2021/04/10 08:20:24;;;;;;;26.67;14.25;;;;;;;12.03;83.94;100541.38;5053348;28;20488;-72
2021/04/10 08:22:52;;;;;;;21.20;13.50;;;;;;;12.05;83.76;100530.78;5053053;28;20048;-74
2021/04/10 08:25:32;;;;;;;20.02;13.93;;;;;;;12.27;83.12;100547.16;5035201;28;20049;-73
2021/04/10 08:28:00;;;;;;;21.35;13.15;;;;;;;12.42;82.46;100539.16;5053014;28;20064;-74
2021/04/10 08:30:28;;;;;;;23.00;13.50;;;;;;;12.29;82.52;100539.38;5052842;28;20052;-72
2021/04/10 08:32:54;;;;;;;24.17;16.73;;;;;;;12.37;82.99;100538.53;5018006;28;20057;-74
2021/04/10 08:35:26;;;;;;;18.95;12.77;;;;;;;12.51;82.33;100539.13;5052276;28;20071;-73
2021/04/10 08:37:58;;;;;;;20.60;13.40;;;;;;;12.66;82.04;100535.81;5048748;28;20067;-74
2021/04/10 08:40:25;;;;;;;19.98;12.43;;;;;;;12.65;81.64;100536.16;5034792;28;20049;-73
2021/04/10 08:43:05;;;;;;;19.35;11.52;;;;;;;12.91;80.47;100532.13;5036683;28;20511;-75
2021/04/10 08:45:35;;;;;;;18.25;11.15;;;;;;;12.74;80.79;100518.41;5018003;28;20057;-73
2021/04/10 08:48:06;;;;;;;17.63;10.20;;;;;;;12.99;80.42;100524.94;5052539;28;20041;-71
2021/04/10 08:50:56;;;;;;;18.75;10.30;;;;;;;13.01;79.78;100523.44;5051365;28;20071;-74
2021/04/10 08:53:25;;;;;;;16.55;8.82;;;;;;;13.31;79.25;100510.44;5040379;28;20056;-73
2021/04/10 08:55:52;;;;;;;14.75;8.52;;;;;;;13.32;78.44;100514.81;5047703;28;20048;-72
2021/04/10 08:58:24;;;;;;;;;;;;;;;13.39;78.21;100517.84;5034546;28;20072;-71
2021/04/10 09:01:10;;;;;;;22.17;12.70;;;;;;;13.59;77.97;100519.81;5034555;28;20002;-76
2021/04/10 09:03:46;;;;;;;;;;;;;;;13.66;76.50;100522.84;5035605;28;20053;-72
2021/04/10 09:06:22;;;;;;;12.77;6.05;;;;;;;13.72;76.21;100520.69;5050706;28;19921;-73
2021/04/10 09:08:50;;;;;;;14.15;5.60;;;;;;;13.92;75.67;100514.31;5033549;28;20049;-72
2021/04/10 09:11:35;;;;;;;9.30;4.70;;;;;;;13.74;75.33;100519.19;5051861;28;20045;-71
2021/04/10 09:14:03;;;;;;;9.68;4.68;;;;;;;13.91;75.28;100526.53;5052120;28;20518;-70
2021/04/10 09:16:50;;;;;;;14.60;4.68;;;;;;;14.11;73.88;100514.59;5051124;28;20049;-72
2021/04/10 09:19:24;;;;;;;10.50;3.50;;;;;;;14.00;73.78;100518.97;5034750;28;20049;-70
2021/04/10 09:21:54;;;;;;;19.15;10.25;;;;;;;14.21;73.45;100516.97;5051746;28;20049;-73
2021/04/10 09:24:41;;;;;;;14.52;5.43;;;;;;;14.14;72.63;100514.72;5051728;28;20053;-73
2021/04/10 09:27:20;;;;;;;9.40;3.33;;;;;;;14.21;71.96;100514.97;5049932;28;20595;-69
2021/04/10 09:30:07;;;;;;;10.95;2.88;;;;;;;14.25;70.63;100515.09;4997726;28;20387;-71
2021/04/10 09:32:41;;;;;;;8.07;2.60;;;;;;;14.26;71.08;100508.47;5004618;28;20056;-70
2021/04/10 09:35:35;;;;;;;8.05;3.03;;;;;;;14.55;70.23;100499.97;5011148;28;20451;-67
2021/04/10 09:38:03;;;;;;;8.95;4.78;;;;;;;14.57;70.32;100503.19;4986883;28;20052;-69
2021/04/10 09:40:48;;;;;;;12.02;5.72;;;;;;;14.46;70.24;100504.78;4937017;28;20399;-70
2021/04/10 09:43:18;;;;;;;10.45;3.40;;;;;;;14.35;69.82;100495.28;4992672;28;20056;-71
2021/04/10 09:45:45;;;;;;;10.25;2.83;;;;;;;14.34;70.21;100499.22;5008842;28;20229;-71
2021/04/10 09:48:14;;;;;;;11.40;3.20;;;;;;;14.18;70.60;100501.81;5009261;28;20052;-71
2021/04/10 09:50:50;;;;;;;12.65;3.22;;;;;;;14.52;69.41;100498.66;4992708;28;20063;-73
2021/04/10 09:53:23;;;;;;;10.90;3.30;;;;;;;14.48;69.68;100489.44;5009217;28;20262;-71
2021/04/10 09:56:09;;;;;;;10.85;3.15;;;;;;;14.65;69.65;100493.94;4964662;28;20049;-69
2021/04/10 09:58:42;;;;;;;10.20;3.10;;;;;;;14.56;68.40;100491.28;4989612;28;20480;-73
2021/04/10 10:01:19;;;;;;;10.98;2.78;;;;;;;14.65;68.90;100489.22;4991367;28;20512;-72
2021/04/10 10:03:49;;;;;;;11.45;4.38;;;;;;;14.78;68.28;100486.44;4956482;28;20053;-72
2021/04/10 10:06:18;;;;;;;16.90;7.10;;;;;;;14.99;68.61;100481.59;4989069;28;20072;-70
2021/04/10 10:08:45;;;;;;;12.45;3.88;;;;;;;15.07;67.98;100481.47;4987365;28;20053;-70
2021/04/10 10:11:12;;;;;;;10.35;3.08;;;;;;;15.21;66.96;100470.81;4983201;28;20068;-70
2021/04/10 10:13:40;;;;;;;7.53;2.85;;;;;;;15.19;67.02;100478.66;4969947;28;20267;-72
2021/04/10 10:16:07;;;;;;;13.13;3.53;;;;;;;14.98;67.41;100477.19;4970929;28;20053;-72
2021/04/10 10:18:46;;;;;;;9.25;3.28;;;;;;;15.27;66.61;100472.16;4988595;28;20061;-70
2021/04/10 10:21:15;;;;;;;7.90;3.00;;;;;;;15.48;66.43;100467.28;4931129;28;20505;-71
2021/04/10 10:23:58;;;;;;;11.23;4.38;;;;;;;15.43;65.79;100458.41;4972946;28;20052;-74
2021/04/10 10:26:48;;;;;;;14.10;7.93;;;;;;;15.11;65.89;100465.75;4985688;28;20368;-73
2021/04/10 10:29:17;;;;;;;12.73;5.00;;;;;;;15.31;65.75;100452.84;4993786;28;20050;-73
2021/04/10 10:31:46;;;;;;;14.30;7.20;;;;;;;15.30;65.40;100452.06;4989155;28;20246;-72
2021/04/10 10:34:15;;;;;;;13.40;4.90;;;;;;;15.57;64.78;100451.28;4947258;28;20080;-73
2021/04/10 10:36:45;;;;;;;12.63;4.33;;;;;;;15.70;64.70;100452.03;4987097;28;20054;-70
2021/04/10 10:39:26;;;;;;;10.38;3.55;;;;;;;15.84;64.84;100446.06;4970041;28;22590;-73
2021/04/10 10:41:56;;;;;;;13.88;3.72;;;;;;;15.89;64.10;100446.63;4988921;28;20554;-74
2021/04/10 10:44:23;;;;;;;8.95;4.32;;;;;;;15.97;64.44;100453.19;4988870;28;20060;-74
2021/04/10 10:47:02;;;;;;;10.27;4.00;;;;;;;15.93;64.06;100441.16;4964778;28;20564;-72
2021/04/10 10:49:29;;;;;;;10.32;4.03;;;;;;;15.80;63.74;100448.75;4946808;28;20056;-74
2021/04/10 10:51:57;;;;;;;10.85;3.28;;;;;;;15.74;63.84;100450.19;4988160;28;20348;-72
2021/04/10 10:54:35;;;;;;;12.20;3.20;;;;;;;15.79;63.04;100445.16;4988108;28;20045;-72
2021/04/10 10:57:16;;;;;;;11.38;3.30;;;;;;;15.85;63.24;100442.16;5003206;28;20552;-70
2021/04/10 11:00:08;;;;;;;9.13;3.75;;;;;;;15.86;62.71;100438.19;4982967;28;20558;-70
2021/04/10 11:02:37;;;;;;;10.50;3.58;;;;;;;15.67;63.77;100434.09;5009858;28;20483;-73
2021/04/10 11:05:08;;;;;;;10.57;4.15;;;;;;;16.01;62.79;100434.63;5008808;28;20506;-70
2021/04/10 11:07:37;;;;;;;7.03;3.20;;;;;;;15.89;62.09;100420.81;4991701;28;20056;-72
2021/04/10 11:10:07;;;;;;;9.00;3.25;;;;;;;15.54;62.50;100418.69;4990831;28;20057;-71
2021/04/10 11:12:35;;;;;;;;;;;;;;;15.64;62.19;100409.03;5006099;28;20192;-72
2021/04/10 11:15:22;;;;;;;9.48;3.28;;;;;;;15.54;62.65;100412.31;4993586;28;19917;-70
2021/04/10 11:17:50;;;;;;;9.63;3.78;;;;;;;15.58;62.94;100411.28;5007531;28;20061;-72
2021/04/10 11:20:36;;;;;;;9.63;2.92;;;;;;;15.66;62.69;100401.97;5007176;28;20322;-72
2021/04/10 11:23:12;;;;;;;7.70;3.45;;;;;;;15.50;62.88;100403.06;5007496;28;20053;-71
2021/04/10 11:25:51;;;;;;;7.80;3.22;;;;;;;15.49;63.05;100401.47;5008183;28;20060;-73
2021/04/10 11:28:30;;;;;;;10.68;3.15;;;;;;;15.44;62.79;100398.94;5009766;28;20061;-72
2021/04/10 11:31:09;;;;;;;8.02;3.75;;;;;;;15.71;63.09;100393.38;5006828;28;20060;-70
2021/04/10 11:33:37;;;;;;;11.13;3.78;;;;;;;15.62;62.93;100389.94;5006259;28;20376;-70
2021/04/10 11:36:09;;;;;;;11.32;3.88;;;;;;;15.58;63.70;100383.50;4991087;28;20052;-71
2021/04/10 11:38:36;;;;;;;11.65;4.65;;;;;;;15.53;64.09;100386.50;4981678;28;20045;-70
2021/04/10 11:41:03;;;;;;;11.73;4.80;;;;;;;15.37;65.32;100393.97;5006622;28;20226;-71
2021/04/10 11:43:32;;;;;;;12.18;5.38;;;;;;;15.41;65.01;100380.22;4948623;28;20049;-67
2021/04/10 11:45:59;;;;;;;13.18;7.78;;;;;;;15.51;65.29;100386.09;5007906;28;20111;-70
2021/04/10 11:48:26;;;;;;;17.65;9.07;;;;;;;15.48;65.07;100386.78;5005474;28;20370;-70
2021/04/10 11:50:54;;;;;;;11.68;5.50;;;;;;;15.46;64.54;100386.31;4981379;28;20125;-70
2021/04/10 11:53:27;;;;;;;15.48;8.57;;;;;;;15.46;65.24;100377.19;5004963;28;20057;-70
2021/04/10 11:55:56;;;;;;;11.65;5.75;;;;;;;15.55;64.79;100364.75;5007161;28;20067;-70
2021/04/10 11:59:02;;;;;;;11.23;4.70;;;;;;;15.57;65.18;100370.78;5008970;28;20052;-71
2021/04/10 12:01:32;;;;;;;8.63;4.43;;;;;;;15.59;65.64;100364.84;5006540;28;20072;-72
2021/04/10 12:04:02;;;;;;;11.98;5.20;;;;;;;15.52;66.33;100375.78;5007233;28;20451;-72
2021/04/10 12:06:31;;;;;;;12.63;5.70;;;;;;;15.35;66.74;100365.78;5005843;28;20266;-70
2021/04/10 12:09:06;;;;;;;8.75;4.50;;;;;;;15.41;67.19;100369.91;4986272;28;20486;-71
2021/04/10 12:11:37;;;;;;;10.52;4.50;;;;;;;15.13;68.25;100371.84;5007087;28;20056;-71
2021/04/10 12:14:06;;;;;;;14.30;6.25;;;;;;;15.19;67.98;100364.09;4988143;28;20299;-72